Flight Track Log - Related Links

Times and Time Zones

All times are in EDT time to prevent confusion due to time zone crossing. See the TAM3749 flight status page for this flight to view local times or setup timezone preferences in your user account.

Time Position Orientation Groundspeed Altitude Reporting Facility
EDT Latitude Longitude Course Direction KTS MPH feet Rate Location/Type
Mon 04:45:22 PM -3.0390 -60.0310 91° East 163 188 1,100  Level FlightAware ADS-B
Mon 04:45:50 PM -3.0390 -60.0080 90° East 178 205 1,900 1,875 Climbing FlightAware ADS-B
Mon 04:46:10 PM -3.0380 -59.9920 86° East 180 207 2,600 2,057 Climbing FlightAware ADS-B
Mon 04:46:25 PM -3.0390 -59.9780 94° East 187 215 3,100 1,565 Climbing FlightAware ADS-B
Mon 04:46:33 PM -3.0410 -59.9720 108° East 197 227 3,200 900 Climbing FlightAware ADS-B
Mon 04:46:45 PM -3.0460 -59.9620 117° Southeast 210 242 3,400 1,200 Climbing FlightAware ADS-B
Mon 04:46:53 PM -3.0520 -59.9570 140° Southeast 220 253 3,600 1,500 Climbing FlightAware ADS-B
Mon 04:47:01 PM -3.0590 -59.9530 150° Southeast 231 266 3,800 1,714 Climbing FlightAware ADS-B
Mon 04:47:21 PM -3.0800 -59.9430 155° Southeast 255 293 4,400 2,400 Climbing FlightAware ADS-B
Mon 04:47:41 PM -3.1030 -59.9350 161° South 263 303 5,400 2,927 Climbing FlightAware ADS-B
Mon 04:48:02 PM -3.1270 -59.9240 155° Southeast 271 312 6,400 3,136 Climbing FlightAware ADS-B
Mon 04:48:25 PM -3.1540 -59.9110 154° Southeast 271 312 7,700 3,070 Climbing FlightAware ADS-B
Mon 04:48:45 PM -3.1770 -59.9000 154° Southeast 281 323 8,600 2,400 Climbing FlightAware ADS-B
Mon 04:49:05 PM -3.2010 -59.8890 155° Southeast 294 338 9,300 2,357 Climbing FlightAware ADS-B
Mon 04:49:41 PM -3.2470 -59.8670 154° Southeast 314 361 10,800 2,167 Climbing FlightAware ADS-B
Mon 04:50:17 PM -3.2970 -59.8430 154° Southeast 343 395 11,900 2,118 Climbing FlightAware ADS-B
Mon 04:50:49 PM -3.3440 -59.8210 155° Southeast 355 409 13,200 2,824 Climbing FlightAware ADS-B
Mon 04:51:25 PM -3.3980 -59.7960 155° Southeast 353 406 15,100 3,750 Climbing FlightAware ADS-B
Mon 04:52:01 PM -3.4490 -59.7720 155° Southeast 322 371 17,700 3,250 Climbing FlightAware ADS-B
Mon 04:52:37 PM -3.4990 -59.7480 154° Southeast 331 381 19,000 2,083 Climbing FlightAware ADS-B
Mon 04:53:13 PM -3.5490 -59.7240 154° Southeast 342 394 20,200 1,500 Climbing FlightAware ADS-B
Mon 04:53:45 PM -3.5970 -59.7020 155° Southeast 369 425 20,700 1,091 Climbing FlightAware ADS-B
Mon 04:54:19 PM -3.6530 -59.6760 155° Southeast 391 450 21,400 1,417 Climbing FlightAware ADS-B
Mon 04:54:57 PM -3.7160 -59.6460 155° Southeast 405 466 22,400 1,562 Climbing FlightAware ADS-B
Mon 04:55:32 PM -3.7760 -59.6180 155° Southeast 418 481 23,300 1,676 Climbing FlightAware ADS-B
Mon 04:56:05 PM -3.8350 -59.5900 155° Southeast 423 487 24,300 1,676 Climbing FlightAware ADS-B
Mon 04:56:40 PM -3.8970 -59.5610 155° Southeast 430 495 25,200 1,667 Climbing FlightAware ADS-B
Mon 04:57:17 PM -3.9640 -59.5290 155° Southeast 434 499 26,300 1,652 Climbing FlightAware ADS-B
Mon 04:57:49 PM -4.0230 -59.5010 155° Southeast 439 505 27,100 1,588 Climbing FlightAware ADS-B
Mon 04:58:25 PM -4.0900 -59.4690 155° Southeast 443 510 28,100 1,043 Climbing FlightAware ADS-B
Mon 04:58:58 PM -4.1430 -59.4440 155° Southeast 443 510 28,300 174 Climbing FlightAware ADS-B
Mon 04:59:34 PM -4.1990 -59.4160 153° Southeast 443 510 28,300  Level FlightAware ADS-B
Mon 05:00:10 PM -4.2560 -59.3880 154° Southeast 443 510 28,300  Level FlightAware ADS-B
Mon 05:00:46 PM -4.3120 -59.3610 154° Southeast 443 510 28,300  Level FlightAware ADS-B
Mon 05:01:23 PM -4.3700 -59.3330 154° Southeast 443 510 28,300  Level FlightAware ADS-B
Mon 05:01:59 PM -4.4260 -59.3050 154° Southeast 443 510 28,300 106 Level FlightAware ADS-B
Mon 05:04:00 PM -4.6165 -59.1860 148° Southeast  Level Estimated
Mon 05:05:00 PM -4.7110 -59.1270 148° Southeast  Level Estimated
Mon 05:06:00 PM -4.8054 -59.0679 148° Southeast  Level Estimated
Mon 05:07:00 PM -4.8999 -59.0089 148° Southeast  Level Estimated
Mon 05:08:00 PM -4.9943 -58.9498 148° Southeast  Level Estimated
Mon 05:09:00 PM -5.0888 -58.8907 148° Southeast  Level Estimated
Mon 05:10:00 PM -5.1832 -58.8316 148° Southeast  Level Estimated
Mon 05:11:00 PM -5.2776 -58.7725 148° Southeast  Level Estimated
Mon 05:12:00 PM -5.3721 -58.7133 148° Southeast  Level Estimated
Mon 05:13:00 PM -5.4665 -58.6542 148° Southeast  Level Estimated
Mon 05:14:00 PM -5.5609 -58.5950 148° Southeast  Level Estimated
Mon 05:15:00 PM -5.6553 -58.5358 148° Southeast  Level Estimated
Mon 05:16:00 PM -5.7497 -58.4766 148° Southeast  Level Estimated
Mon 05:17:00 PM -5.8441 -58.4173 148° Southeast  Level Estimated
Mon 05:18:00 PM -5.9385 -58.3581 148° Southeast  Level Estimated
Mon 05:19:00 PM -6.0329 -58.2988 148° Southeast  Level Estimated
Mon 05:20:00 PM -6.1273 -58.2395 148° Southeast  Level Estimated
Mon 05:21:00 PM -6.2216 -58.1802 148° Southeast  Level Estimated
Mon 05:22:00 PM -6.3160 -58.1208 148° Southeast  Level Estimated
Mon 05:23:00 PM -6.4103 -58.0615 148° Southeast  Level Estimated
Mon 05:24:00 PM -6.5047 -58.0021 148° Southeast  Level Estimated
Mon 05:25:00 PM -6.5990 -57.9427 148° Southeast  Level Estimated
Mon 05:26:00 PM -6.6934 -57.8832 148° Southeast  Level Estimated
Mon 05:27:00 PM -6.7877 -57.8238 148° Southeast  Level Estimated
Mon 05:28:00 PM -6.8820 -57.7643 148° Southeast  Level Estimated
Mon 05:29:00 PM -6.9763 -57.7048 148° Southeast  Level Estimated
Mon 05:30:00 PM -7.0707 -57.6453 148° Southeast  Level Estimated
Mon 05:31:00 PM -7.1649 -57.5857 148° Southeast  Level Estimated
Mon 05:32:00 PM -7.2592 -57.5262 148° Southeast  Level Estimated
Mon 05:33:00 PM -7.3535 -57.4666 148° Southeast  Level Estimated
Mon 05:34:00 PM -7.4478 -57.4069 148° Southeast  Level Estimated
Mon 05:35:00 PM -7.5421 -57.3473 148° Southeast  Level Estimated
Mon 05:36:00 PM -7.6363 -57.2876 148° Southeast  Level Estimated
Mon 05:37:00 PM -7.7306 -57.2279 148° Southeast  Level Estimated
Mon 05:38:00 PM -7.8248 -57.1682 148° Southeast  Level Estimated
Mon 05:39:00 PM -7.9191 -57.1084 148° Southeast  Level Estimated
Mon 05:40:00 PM -8.0133 -57.0486 148° Southeast  Level Estimated
Mon 05:41:00 PM -8.1075 -56.9888 148° Southeast  Level Estimated
Mon 05:42:00 PM -8.2017 -56.9290 148° Southeast  Level Estimated
Mon 05:43:00 PM -8.2959 -56.8691 148° Southeast  Level Estimated
Mon 05:44:00 PM -8.3901 -56.8092 148° Southeast  Level Estimated
Mon 05:45:00 PM -8.4843 -56.7493 148° Southeast  Level Estimated
Mon 05:46:00 PM -8.5785 -56.6893 148° Southeast  Level Estimated
Mon 05:47:00 PM -8.6726 -56.6293 148° Southeast  Level Estimated
Mon 05:48:00 PM -8.7668 -56.5693 148° Southeast  Level Estimated
Mon 05:49:00 PM -8.8609 -56.5093 148° Southeast  Level Estimated
Mon 05:50:00 PM -8.9551 -56.4492 148° Southeast  Level Estimated
Mon 05:51:00 PM -9.0492 -56.3891 148° Southeast  Level Estimated
Mon 05:52:00 PM -9.1433 -56.3290 148° Southeast  Level Estimated
Mon 05:53:00 PM -9.2374 -56.2688 148° Southeast  Level Estimated
Mon 05:54:00 PM -9.3315 -56.2086 148° Southeast  Level Estimated
Mon 05:55:00 PM -9.4256 -56.1483 148° Southeast  Level Estimated
Mon 05:56:00 PM -9.5197 -56.0881 148° Southeast  Level Estimated
Mon 05:57:00 PM -9.6138 -56.0278 148° Southeast  Level Estimated
Mon 05:58:00 PM -9.7078 -55.9674 148° Southeast  Level Estimated
Mon 05:59:00 PM -9.8019 -55.9071 148° Southeast  Level Estimated
Mon 06:00:00 PM -9.8959 -55.8467 148° Southeast  Level Estimated
Mon 06:01:00 PM -9.9899 -55.7862 148° Southeast  Level Estimated
Mon 06:02:00 PM -10.0839 -55.7258 148° Southeast  Level Estimated
Mon 06:03:00 PM -10.1779 -55.6653 148° Southeast  Level Estimated
Mon 06:04:00 PM -10.2719 -55.6047 148° Southeast  Level Estimated
Mon 06:05:00 PM -10.3659 -55.5441 148° Southeast  Level Estimated
Mon 06:06:00 PM -10.4599 -55.4835 148° Southeast  Level Estimated
Mon 06:07:00 PM -10.5538 -55.4229 148° Southeast  Level Estimated
Mon 06:08:00 PM -10.6478 -55.3622 148° Southeast  Level Estimated
Mon 06:09:00 PM -10.7417 -55.3014 148° Southeast  Level Estimated
Mon 06:10:00 PM -10.8356 -55.2407 148° Southeast  Level Estimated
Mon 06:11:00 PM -10.9295 -55.1799 148° Southeast  Level Estimated
Mon 06:12:00 PM -11.0234 -55.1190 148° Southeast  Level Estimated
Mon 06:13:00 PM -11.1173 -55.0582 148° Southeast  Level Estimated
Mon 06:14:00 PM -11.2112 -54.9972 148° Southeast  Level Estimated
Mon 06:15:00 PM -11.3050 -54.9363 148° Southeast  Level Estimated
Mon 06:16:00 PM -11.3989 -54.8753 147° Southeast  Level Estimated
Mon 06:17:00 PM -11.4927 -54.8143 147° Southeast  Level Estimated
Mon 06:18:00 PM -11.5866 -54.7532 147° Southeast  Level Estimated
Mon 06:19:00 PM -11.6804 -54.6921 147° Southeast  Level Estimated
Mon 06:20:00 PM -11.7742 -54.6309 147° Southeast  Level Estimated
Mon 06:21:00 PM -11.8680 -54.5697 147° Southeast  Level Estimated
Mon 06:22:00 PM -11.9617 -54.5084 147° Southeast  Level Estimated
Mon 06:23:00 PM -12.0555 -54.4472 147° Southeast  Level Estimated
Mon 06:24:00 PM -12.1492 -54.3858 147° Southeast  Level Estimated
Mon 06:25:00 PM -12.2430 -54.3245 147° Southeast  Level Estimated
Mon 06:26:00 PM -12.3367 -54.2630 147° Southeast  Level Estimated
Mon 06:27:00 PM -12.4304 -54.2016 147° Southeast  Level Estimated
Mon 06:28:00 PM -12.5241 -54.1401 147° Southeast  Level Estimated
Mon 06:29:00 PM -12.6177 -54.0785 147° Southeast  Level Estimated
Mon 06:30:00 PM -12.7114 -54.0169 147° Southeast  Level Estimated
Mon 06:31:00 PM -12.8050 -53.9553 147° Southeast  Level Estimated
Mon 06:32:00 PM -12.8987 -53.8936 147° Southeast  Level Estimated
Mon 06:33:00 PM -12.9923 -53.8318 147° Southeast  Level Estimated
Mon 06:34:00 PM -13.0859 -53.7701 147° Southeast  Level Estimated
Mon 06:35:00 PM -13.1795 -53.7082 147° Southeast  Level Estimated
Mon 06:36:00 PM -13.2731 -53.6464 147° Southeast  Level Estimated
Mon 06:37:00 PM -13.3666 -53.5844 147° Southeast  Level Estimated
Mon 06:38:00 PM -13.4602 -53.5225 147° Southeast  Level Estimated
Mon 06:39:00 PM -13.5537 -53.4605 147° Southeast  Level Estimated
Mon 06:40:00 PM -13.6472 -53.3984 147° Southeast  Level Estimated
Mon 06:41:00 PM -13.7407 -53.3363 147° Southeast  Level Estimated
Mon 06:42:00 PM -13.8342 -53.2741 147° Southeast  Level Estimated
Mon 06:43:00 PM -13.9277 -53.2119 147° Southeast  Level Estimated
Mon 06:44:00 PM -14.0211 -53.1496 147° Southeast  Level Estimated
Mon 06:45:00 PM -14.1145 -53.0873 147° Southeast  Level Estimated
Mon 06:46:00 PM -14.2080 -53.0249 147° Southeast  Level Estimated
Mon 06:47:00 PM -14.3014 -52.9625 147° Southeast  Level Estimated
Mon 06:48:00 PM -14.3947 -52.9000 147° Southeast  Level Estimated
Mon 06:49:00 PM -14.4881 -52.8375 147° Southeast  Level Estimated
Mon 06:50:00 PM -14.5815 -52.7749 147° Southeast  Level Estimated
Mon 06:51:00 PM -14.6748 -52.7123 147° Southeast  Level Estimated
Mon 06:52:00 PM -14.7681 -52.6496 147° Southeast  Level Estimated
Mon 06:53:00 PM -14.8614 -52.5869 147° Southeast  Level Estimated
Mon 06:54:00 PM -14.9547 -52.5241 147° Southeast  Level Estimated
Mon 06:55:00 PM -15.0480 -52.4612 147° Southeast  Level Estimated
Mon 06:56:00 PM -15.1412 -52.3983 147° Southeast  Level Estimated
Mon 06:57:00 PM -15.2345 -52.3354 147° Southeast  Level Estimated
Mon 06:58:00 PM -15.3277 -52.2724 147° Southeast  Level Estimated
Mon 06:59:00 PM -15.4209 -52.2093 147° Southeast  Level Estimated
Mon 07:00:00 PM -15.5141 -52.1462 147° Southeast  Level Estimated
Mon 07:00:50 PM -18.0750 -50.6230 147° Southeast 510 587 41,000  Level FlightAware ADS-B
Mon 07:01:00 PM -15.6072 -52.0830 147° Southeast  Level Estimated
Mon 07:01:22 PM -18.1350 -50.5750 143° Southeast 511 588 41,000  Level FlightAware ADS-B
Mon 07:01:56 PM -18.1990 -50.5240 143° Southeast 510 587 41,000  Level FlightAware ADS-B
Mon 07:02:32 PM -18.2660 -50.4700 143° Southeast 507 583 41,000  Level FlightAware ADS-B
Mon 07:03:06 PM -18.3300 -50.4180 142° Southeast 505 581 41,000  Level FlightAware ADS-B
Mon 07:03:46 PM -18.3930 -50.3660 142° Southeast 505 581 41,000  Level FlightAware ADS-B
Mon 07:04:22 PM -18.4490 -50.3200 142° Southeast 505 581 41,000  Level FlightAware ADS-B
Mon 07:04:58 PM -18.5060 -50.2740 143° Southeast 505 581 41,000  Level FlightAware ADS-B
Mon 07:05:34 PM -18.5620 -50.2270 141° Southeast 505 581 41,000  Level FlightAware ADS-B
Mon 07:06:09 PM -18.6660 -50.1430 143° Southeast 502 578 41,000  Level FlightAware ADS-B
Mon 07:06:43 PM -18.7290 -50.0910 142° Southeast 502 578 41,000  Level FlightAware ADS-B
Mon 07:07:13 PM -18.7860 -50.0450 143° Southeast 501 577 41,000  Level FlightAware ADS-B
Mon 07:07:43 PM -18.8380 -50.0010 141° Southeast 500 575 41,000  Level FlightAware ADS-B
Mon 07:08:37 PM -18.9390 -49.9190 142° Southeast 498 573 41,000  Level FlightAware ADS-B
Mon 07:09:13 PM -19.0040 -49.8650 142° Southeast 495 570 41,000  Level FlightAware ADS-B
Mon 07:09:49 PM -19.0670 -49.8130 142° Southeast 494 568 41,000  Level FlightAware ADS-B
Mon 07:10:21 PM -19.1250 -49.7650 142° Southeast 495 570 41,000  Level FlightAware ADS-B
Mon 07:10:57 PM -19.1910 -49.7100 142° Southeast 497 572 41,000  Level FlightAware ADS-B
Mon 07:11:32 PM -19.2530 -49.6590 142° Southeast 497 572 41,000  Level FlightAware ADS-B
Mon 07:12:14 PM -19.3290 -49.5960 142° Southeast 497 572 41,000  Level FlightAware ADS-B
Mon 07:12:51 PM -19.3980 -49.5390 142° Southeast 497 572 41,000  Level FlightAware ADS-B
Mon 07:13:24 PM -19.4570 -49.4900 142° Southeast 496 571 41,000  Level FlightAware ADS-B
Mon 07:13:59 PM -19.5210 -49.4370 142° Southeast 496 571 41,000  Level FlightAware ADS-B
Mon 07:14:34 PM -19.5830 -49.3850 142° Southeast 498 573 41,000  Level FlightAware ADS-B
Mon 07:15:11 PM -19.6510 -49.3280 142° Southeast 498 573 41,000  Level FlightAware ADS-B
Mon 07:15:43 PM -19.7100 -49.2790 142° Southeast 496 571 41,000  Level FlightAware ADS-B
Mon 07:16:21 PM -19.7780 -49.2220 142° Southeast 496 571 41,000  Level FlightAware ADS-B
Mon 07:16:57 PM -19.8430 -49.1680 142° Southeast 496 571 41,000  Level FlightAware ADS-B
Mon 07:17:29 PM -19.9000 -49.1200 142° Southeast 496 571 41,000  Level FlightAware ADS-B
Mon 07:18:05 PM -19.9650 -49.0660 142° Southeast 497 572 41,000  Level FlightAware ADS-B
Mon 07:18:41 PM -20.0310 -49.0110 142° Southeast 497 572 41,000  Level FlightAware ADS-B
Mon 07:19:15 PM -20.0930 -48.9590 142° Southeast 497 572 41,000  Level FlightAware ADS-B
Mon 07:19:51 PM -20.1580 -48.9040 142° Southeast 496 571 41,000  Level FlightAware ADS-B
Mon 07:20:27 PM -20.2220 -48.8500 142° Southeast 498 573 41,000  Level FlightAware ADS-B
Mon 07:20:59 PM -20.2800 -48.8010 142° Southeast 498 573 41,000  Level FlightAware ADS-B
Mon 07:21:35 PM -20.3450 -48.7470 142° Southeast 498 573 41,000  Level FlightAware ADS-B
Mon 07:22:12 PM -20.4070 -48.6940 141° Southeast 498 573 41,000  Level FlightAware ADS-B
Mon 07:22:43 PM -20.4670 -48.6430 141° Southeast 496 571 41,000  Level FlightAware ADS-B
Mon 07:23:19 PM -20.5330 -48.5880 142° Southeast 496 571 41,000  Level FlightAware ADS-B
Mon 07:23:55 PM -20.5970 -48.5330 141° Southeast 494 568 41,000  Level FlightAware ADS-B
Mon 07:24:31 PM -20.6620 -48.4790 142° Southeast 493 567 41,000  Level FlightAware ADS-B
Mon 07:25:04 PM -20.7210 -48.4280 141° Southeast 494 568 41,000  Level FlightAware ADS-B
Mon 07:25:41 PM -20.7870 -48.3730 142° Southeast 495 570 41,000  Level FlightAware ADS-B
Mon 07:26:16 PM -20.8500 -48.3190 141° Southeast 496 571 41,000  Level FlightAware ADS-B
Mon 07:26:49 PM -20.9090 -48.2690 142° Southeast 498 573 41,000  Level FlightAware ADS-B
Mon 07:27:25 PM -20.9750 -48.2130 142° Southeast 498 573 41,000  Level FlightAware ADS-B
Mon 07:28:01 PM -21.0400 -48.1570 141° Southeast 497 572 41,000  Level FlightAware ADS-B
Mon 07:28:37 PM -21.1040 -48.1020 141° Southeast 497 572 41,000  Level FlightAware ADS-B
Mon 07:29:09 PM -21.1620 -48.0530 142° Southeast 499 574 41,000  Level FlightAware ADS-B
Mon 07:29:45 PM -21.2260 -47.9980 141° Southeast 499 574 41,000  Level FlightAware ADS-B
Mon 07:30:19 PM -21.2890 -47.9440 141° Southeast 498 573 41,000  Level FlightAware ADS-B
Mon 07:30:53 PM -21.3490 -47.8920 141° Southeast 497 572 41,000 -600 Level FlightAware ADS-B
Mon 07:31:29 PM -21.4160 -47.8360 142° Southeast 501 577 40,300 -1,667 Descending FlightAware ADS-B
Mon 07:32:05 PM -21.4790 -47.7810 141° Southeast 501 577 39,000 -2,250 Descending FlightAware ADS-B
Mon 07:32:41 PM -21.5460 -47.7240 142° Southeast 502 578 37,600 -2,364 Descending FlightAware ADS-B
Mon 07:33:11 PM -21.6000 -47.6770 141° Southeast 501 577 36,400 -2,206 Descending FlightAware ADS-B
Mon 07:33:49 PM -21.6680 -47.6180 141° Southeast 494 568 35,100 -1,895 Descending FlightAware ADS-B
Mon 07:34:27 PM -21.7340 -47.5610 141° Southeast 481 554 34,000 -1,800 Descending FlightAware ADS-B
Mon 07:34:59 PM -21.7890 -47.5130 141° Southeast 472 543 33,000 -1,765 Descending FlightAware ADS-B
Mon 07:35:35 PM -21.8500 -47.4610 142° Southeast 461 531 32,000 -1,676 Descending FlightAware ADS-B
Mon 07:36:07 PM -21.9030 -47.4150 141° Southeast 453 521 31,100 -1,667 Descending FlightAware ADS-B
Mon 07:36:47 PM -21.9690 -47.3620 143° Southeast 439 505 30,000 -1,583 Descending FlightAware ADS-B
Mon 07:37:19 PM -22.0250 -47.3280 151° Southeast 427 491 29,200 -1,588 Descending FlightAware ADS-B
Mon 07:37:55 PM -22.0900 -47.3000 158° South 416 479 28,200 -1,737 Descending FlightAware ADS-B
Mon 07:38:35 PM -22.1590 -47.2720 159° South 408 470 27,000 -1,737 Descending FlightAware ADS-B
Mon 07:39:11 PM -22.2250 -47.2450 159° South 400 460 26,000 -1,667 Descending FlightAware ADS-B
Mon 07:39:47 PM -22.2870 -47.2200 160° South 391 450 25,000 -1,676 Descending FlightAware ADS-B
Mon 07:40:19 PM -22.3400 -47.1980 159° South 384 442 24,100 -1,588 Descending FlightAware ADS-B
Mon 07:40:55 PM -22.4000 -47.1730 159° South 376 433 23,200 -1,583 Descending FlightAware ADS-B
Mon 07:41:31 PM -22.4580 -47.1480 158° South 370 426 22,200 -1,583 Descending FlightAware ADS-B
Mon 07:42:07 PM -22.5150 -47.1240 159° South 363 418 21,300 -1,479 Descending FlightAware ADS-B
Mon 07:42:44 PM -22.5700 -47.1000 158° South 357 411 20,400 -1,545 Descending FlightAware ADS-B
Mon 07:43:13 PM -22.6160 -47.0810 159° South 352 405 19,600 -1,676 Descending FlightAware ADS-B
Mon 07:43:52 PM -22.6750 -47.0560 159° South 347 399 18,500 -1,644 Descending FlightAware ADS-B
Mon 07:44:26 PM -22.7260 -47.0350 159° South 343 395 17,600 -1,543 Descending FlightAware ADS-B
Mon 07:45:02 PM -22.7790 -47.0130 159° South 340 391 16,700 -1,500 Descending FlightAware ADS-B
Mon 07:45:38 PM -22.8310 -46.9910 159° South 339 390 15,800 -1,588 Descending FlightAware ADS-B
Mon 07:46:10 PM -22.8790 -46.9710 159° South 335 386 14,900 -1,629 Descending FlightAware ADS-B
Mon 07:46:48 PM -22.9340 -46.9480 159° South 338 389 13,900 -1,629 Descending FlightAware ADS-B
Mon 07:47:20 PM -22.9810 -46.9280 159° South 335 386 13,000 -1,676 Descending FlightAware ADS-B
Mon 07:47:56 PM -23.0320 -46.9060 158° South 332 382 12,000 -1,378 Descending FlightAware ADS-B
Mon 07:48:34 PM -23.0850 -46.8840 159° South 290 334 11,300 -943 Descending FlightAware ADS-B
Mon 07:49:06 PM -23.1210 -46.8690 159° South 253 291 10,900 -1,059 Descending FlightAware ADS-B
Mon 07:49:42 PM -23.1590 -46.8530 159° South 238 274 10,100 -1,385 Descending FlightAware ADS-B
Mon 07:49:58 PM -23.1760 -46.8460 159° South 236 272 9,700 -1,333 Descending FlightAware ADS-B
Mon 07:50:18 PM -23.1940 -46.8380 158° South 233 268 9,300 -1,400 Descending FlightAware ADS-B
Mon 07:50:28 PM -23.2060 -46.8330 159° South 232 267 9,000 -1,313 Descending FlightAware ADS-B
Mon 07:50:50 PM -23.2280 -46.8240 159° South 227 261 8,600 -1,143 Descending FlightAware ADS-B
Mon 07:51:10 PM -23.2480 -46.8150 158° South 232 267 8,200 -1,091 Descending FlightAware ADS-B
Mon 07:51:34 PM -23.2720 -46.8050 159° South 234 269 7,800 -1,000 Descending FlightAware ADS-B
Mon 07:51:46 PM -23.2840 -46.8000 159° South 233 268 7,600 -667 Descending FlightAware ADS-B
Mon 07:52:10 PM -23.3080 -46.7900 159° South 224 258 7,400 -400 Descending FlightAware ADS-B
Mon 07:52:31 PM -23.3270 -46.7820 159° South 219 252 7,300 -375 Descending FlightAware ADS-B
Mon 07:52:42 PM -23.3390 -46.7770 159° South 219 252 7,200 -545 Descending FlightAware ADS-B
Mon 07:53:04 PM -23.3590 -46.7680 158° South 219 252 7,000 -343 Descending FlightAware ADS-B
Mon 07:53:17 PM -23.3710 -46.7630 159° South 214 246 7,000 -522 Level FlightAware ADS-B
Mon 07:53:27 PM -23.3790 -46.7560 141° Southeast 211 243 6,800 -1,034 Descending FlightAware ADS-B
Mon 07:53:46 PM -23.3940 -46.7430 142° Southeast 214 246 6,500 -1,385 Descending FlightAware ADS-B
Mon 07:54:06 PM -23.4080 -46.7290 137° Southeast 224 258 5,900 -1,227 Descending FlightAware ADS-B
Mon 07:54:30 PM -23.4270 -46.7110 139° Southeast 211 243 5,600 -955 Descending FlightAware ADS-B
Mon 07:54:50 PM -23.4420 -46.6980 142° Southeast 198 228 5,200 -1,071 Descending FlightAware ADS-B
Mon 07:54:58 PM -23.4470 -46.6920 132° Southeast 195 224 5,100 -1,000 Descending FlightAware ADS-B
Mon 07:55:02 PM -23.4490 -46.6890 126° Southeast 194 223 5,000 -500 Descending FlightAware ADS-B
Mon 07:55:10 PM -23.4520 -46.6830 119° Southeast 187 215 5,000 -273 Level FlightAware ADS-B
Mon 07:55:24 PM -23.4570 -46.6710 114° Southeast 177 204 4,900 -529 Descending FlightAware ADS-B
Mon 07:55:44 PM -23.4640 -46.6550 116° Southeast 161 185 4,700 -667 Descending FlightAware ADS-B
Mon 07:56:09 PM -23.4710 -46.6390 116° Southeast 140 161 4,400 -514 Descending FlightAware ADS-B
Mon 07:56:19 PM -23.4740 -46.6320 115° Southeast 134 154 4,400  Level FlightAware ADS-B
Mon 07:56:28 PM -23.4750 -46.6270 102° East 131 151 4,400  Level FlightAware ADS-B
Mon 07:56:32 PM -23.4750 -46.6240 90° East 133 153 4,400 -250 Level FlightAware ADS-B
Mon 07:56:52 PM -23.4730 -46.6160 75° East 136 157 4,300 -273 Descending FlightAware ADS-B
Mon 07:57:16 PM -23.4690 -46.6000 75° East 134 154 4,200 -450 Descending FlightAware ADS-B
Mon 07:57:32 PM -23.4660 -46.5890 73° East 138 159 4,000 -750 Descending FlightAware ADS-B
Mon 07:57:48 PM -23.4630 -46.5780 73° East 137 158 3,800 -857 Descending FlightAware ADS-B
Mon 07:58:07 PM -23.4600 -46.5650 76° East 140 161 3,500 -686 Descending FlightAware ADS-B
Mon 07:58:23 PM -23.4580 -46.5560 76° East 139 160 3,400 -667 Descending FlightAware ADS-B
Mon 07:58:43 PM -23.4540 -46.5420 73° East 140 161 3,100 -800 Descending FlightAware ADS-B
Mon 07:59:08 PM -23.4490 -46.5260 71° East 138 159 2,800 -857 Descending FlightAware ADS-B
Mon 07:59:32 PM -23.4430 -46.5030 74° East 141 162 2,400 -750 Descending FlightAware ADS-B
Mon 07:59:48 PM -23.4400 -46.4930 72° East 141 162 2,300 -529 Descending FlightAware ADS-B
Mon 08:00:06 PM -23.4370 -46.4810 75° East 139 160 2,100 -667 Descending FlightAware ADS-B
Mon 08:02:00 PM -23.4321 -46.4695 65° Northeast  Level Estimated
Mon 08:03:00 PM -23.4321 -46.4695 350° North  Level Estimated
Mon 08:04:00 PM -23.4321 -46.4695 350° North  Level Estimated
Mon 08:05:00 PM -23.4321 -46.4695 350° North  Level Estimated
Mon 08:06:00 PM -23.4321 -46.4695 350° North  Level Estimated
Mon 08:07:00 PM -23.4321 -46.4695 350° North  Level Estimated
Mon 08:08:00 PM -23.4321 -46.4695 350° North  Level Estimated
Mon 08:09:00 PM -23.4321 -46.4695 350° North  Level Estimated
Mon 08:10:00 PM -23.4321 -46.4695 350° North  Level Estimated
Mon 08:11:00 PM -23.4321 -46.4695 350° North  Level Estimated
Mon 08:12:00 PM -23.4321 -46.4695 350° North  Level Estimated
Mon 08:13:00 PM -23.4321 -46.4695 350° North  Level Estimated
Mon 08:14:00 PM -23.4321 -46.4695 350° North  Level Estimated
Mon 08:15:00 PM -23.4321 -46.4695 350° North  Level Estimated
Mon 08:16:00 PM -23.4321 -46.4695 350° North  Level Estimated
Mon 08:17:00 PM -23.4321 -46.4695 350° North  Level Estimated
Mon 08:18:00 PM -23.4321 -46.4695 350° North  Level Estimated
Mon 08:19:00 PM -23.4321 -46.4695 350° North  Level Estimated
Mon 08:20:00 PM -23.4321 -46.4695 350° North  Level Estimated
Mon 08:21:00 PM -23.4321 -46.4695 350° North  Level Estimated
Mon 08:22:00 PM -23.4321 -46.4695 350° North  Level Estimated
Mon 08:23:00 PM -23.4321 -46.4695 350° North  Level Estimated
Mon 08:24:00 PM -23.4321 -46.4695 350° North  Level Estimated
Mon 08:25:00 PM -23.4321 -46.4695 350° North  Level Estimated
Mon 08:26:00 PM -23.4321 -46.4695 350° North  Level Estimated
Mon 08:27:00 PM -23.4321 -46.4695 350° North  Level Estimated
Mon 08:28:00 PM -23.4321 -46.4695 350° North  Level Estimated
Mon 08:29:00 PM -23.4321 -46.4695 350° North  Level Estimated
Mon 08:30:00 PM -23.4321 -46.4695 350° North  Level Estimated
Mon 08:31:00 PM -23.4321 -46.4695 350° North  Level Estimated
Mon 08:32:00 PM -23.4321 -46.4695 350° North  Level Estimated
Mon 08:33:00 PM -23.4321 -46.4695 350° North  Level Estimated
Mon 08:34:00 PM -23.4321 -46.4695 350° North  Level Estimated
Mon 08:35:00 PM -23.4321 -46.4695 350° North  Level Estimated
Mon 08:36:00 PM -23.4321 -46.4695 350° North  Level Estimated
Mon 08:37:00 PM -23.4321 -46.4695 350° North  Level Estimated
Mon 08:38:00 PM -23.4321 -46.4695 350° North  Level Estimated
Mon 08:39:00 PM -23.4321 -46.4695 350° North  Level Estimated
Mon 08:39:04 PM -23.4310 -46.4870 350° North  Level FlightAware ADS-B
Mon 08:41:00 PM -23.4321 -46.4695 94° East  Level Estimated
Mon 08:42:00 PM -23.4321 -46.4695 350° North  Level Estimated
Mon 08:43:00 PM -23.4321 -46.4695 350° North  Level Estimated
Mon 08:44:00 PM -23.4321 -46.4695 350° North  Level Estimated
Mon 08:45:00 PM -23.4321 -46.4695 350° North  Level Estimated
Mon 08:46:00 PM -23.4321 -46.4695 350° North  Level Estimated
Mon 08:47:00 PM -23.4321 -46.4695 350° North  Level Estimated
Mon 08:48:00 PM -23.4321 -46.4695 350° North  Level Estimated

Login

Don't have an account? Register now (free) for customized features, flight alerts, and more!